Time;durP1;ratioP1;P1;durP2;ratioP2;P2;SDS_P1;SDS_P2;PMS_P1;PMS_P2;Temp;Humidity;BMP_temperature;BMP_pressure;BME280_temperature;BME280_humidity;BME280_pressure;Samples;Min_cycle;Max_cycle;Signal;HPM_P1;HPM_P2
2023/04/11 00:00:32;;;;;;;9.02;1.60;;;10.60;89.40;;;;;;5073705;28;20083;-91
2023/04/11 00:02:58;;;;;;;6.05;2.00;;;10.60;89.50;;;;;;5057071;28;20044;-88
2023/04/11 00:05:26;;;;;;;4.20;1.58;;;10.60;89.60;;;;;;5073186;28;20129;-90
2023/04/11 00:07:51;;;;;;;5.32;1.55;;;10.50;89.80;;;;;;5059032;28;20044;-89
2023/04/11 00:10:17;;;;;;;4.80;1.60;;;10.60;89.80;;;;;;5077603;28;20040;-91
2023/04/11 00:12:42;;;;;;;5.53;1.45;;;10.70;89.50;;;;;;5058092;28;20378;-91
2023/04/11 00:15:08;;;;;;;6.82;1.40;;;10.70;89.30;;;;;;5074944;28;20044;-90
2023/04/11 00:17:36;;;;;;;4.63;1.45;;;10.70;89.20;;;;;;5056747;28;20043;-89
2023/04/11 00:20:09;;;;;;;3.42;1.27;;;10.70;89.10;;;;;;5074582;28;20047;-91
2023/04/11 00:22:35;;;;;;;4.78;1.30;;;10.70;89.30;;;;;;5056575;28;20424;-90
2023/04/11 00:25:01;;;;;;;7.80;1.42;;;10.80;89.20;;;;;;5073623;28;20044;-89
2023/04/11 00:27:27;;;;;;;4.38;1.35;;;10.80;89.10;;;;;;5072323;28;20528;-90
2023/04/11 00:29:55;;;;;;;3.67;1.58;;;10.70;89.10;;;;;;5072593;28;20047;-90
2023/04/11 00:32:20;;;;;;;7.05;1.75;;;10.70;89.00;;;;;;5072613;28;20440;-89
2023/04/11 00:34:46;;;;;;;3.55;1.50;;;10.70;89.00;;;;;;5074092;28;20054;-91
2023/04/11 00:37:13;;;;;;;3.33;1.45;;;10.80;88.90;;;;;;5074611;28;20052;-90
2023/04/11 00:39:38;;;;;;;6.60;1.77;;;10.70;88.70;;;;;;5074452;28;20102;-90
2023/04/11 00:42:06;;;;;;;3.10;1.33;;;10.80;88.70;;;;;;5057556;28;20086;-90
2023/04/11 00:44:33;;;;;;;6.85;1.67;;;10.70;88.60;;;;;;5073484;28;20047;-89
2023/04/11 00:47:01;;;;;;;8.40;1.80;;;10.70;88.60;;;;;;5072725;28;20082;-91
2023/04/11 00:49:28;;;;;;;5.80;1.73;;;10.60;88.50;;;;;;5056834;28;20118;-89
2023/04/11 00:51:53;;;;;;;4.28;1.80;;;10.60;88.40;;;;;;5073439;28;20155;-90
2023/04/11 00:54:19;;;;;;;7.60;1.30;;;10.70;88.40;;;;;;5056724;28;20131;-90
2023/04/11 00:56:45;;;;;;;3.67;1.52;;;10.70;88.20;;;;;;5072931;28;20119;-91
2023/04/11 00:59:11;;;;;;;4.95;1.40;;;10.70;88.10;;;;;;5056092;28;20040;-90
2023/04/11 01:01:37;;;;;;;5.45;1.70;;;10.70;87.90;;;;;;5056331;28;20844;-90
2023/04/11 01:04:04;;;;;;;4.60;1.50;;;10.70;87.90;;;;;;5058964;28;20036;-89
2023/04/11 01:06:31;;;;;;;6.75;1.48;;;10.70;87.80;;;;;;5060421;28;20066;-91
2023/04/11 01:08:57;;;;;;;5.18;1.50;;;10.70;87.60;;;;;;5059864;28;20036;-90
2023/04/11 01:11:23;;;;;;;4.10;1.60;;;10.70;87.50;;;;;;5076653;28;20046;-88
2023/04/11 01:13:50;;;;;;;4.55;1.77;;;10.70;87.40;;;;;;5059765;28;20493;-91
2023/04/11 01:16:20;;;;;;;2.75;1.35;;;10.60;87.30;;;;;;5076709;28;20048;-90
2023/04/11 01:18:47;;;;;;;4.65;1.48;;;10.60;87.40;;;;;;5076323;28;20044;-89
2023/04/11 01:21:12;;;;;;;4.75;1.25;;;10.50;87.40;;;;;;5076731;28;20149;-91
2023/04/11 01:23:38;;;;;;;3.20;1.27;;;10.50;87.40;;;;;;5076987;28;20040;-90
2023/04/11 01:26:04;;;;;;;5.15;1.92;;;10.50;87.40;;;;;;5059321;28;20051;-89
2023/04/11 01:28:30;;;;;;;6.10;1.67;;;10.50;87.50;;;;;;5076679;28;20447;-90
2023/04/11 01:30:56;;;;;;;6.13;1.92;;;10.50;87.60;;;;;;5077126;28;20047;-90
2023/04/11 01:33:22;;;;;;;5.50;1.40;;;10.60;87.70;;;;;;5059588;28;20122;-91
2023/04/11 01:35:48;;;;;;;6.85;1.67;;;10.50;87.70;;;;;;5076690;28;20499;-90
2023/04/11 01:38:14;;;;;;;6.82;1.95;;;10.50;87.70;;;;;;5075947;28;20056;-90
2023/04/11 01:40:40;;;;;;;5.63;1.80;;;10.60;87.80;;;;;;5059559;28;20077;-91
2023/04/11 01:43:08;;;;;;;6.30;2.05;;;10.50;87.70;;;;;;5076010;28;20044;-91
2023/04/11 01:45:34;;;;;;;5.32;1.75;;;10.60;87.80;;;;;;5075780;28;20056;-88
2023/04/11 01:48:05;;;;;;;5.43;1.70;;;10.60;87.90;;;;;;5075836;28;20127;-91
2023/04/11 01:50:31;;;;;;;8.70;1.77;;;10.50;87.90;;;;;;5076150;28;20040;-90
2023/04/11 01:52:57;;;;;;;5.60;2.17;;;10.50;87.80;;;;;;5075877;28;20036;-89
2023/04/11 01:55:22;;;;;;;8.57;2.00;;;10.60;87.90;;;;;;5058843;28;20404;-90
2023/04/11 01:57:48;;;;;;;4.45;1.92;;;10.50;87.90;;;;;;5076163;28;20101;-90
2023/04/11 02:00:14;;;;;;;6.50;1.70;;;10.50;87.90;;;;;;5075782;28;20065;-88
2023/04/11 02:02:40;;;;;;;7.32;2.00;;;10.50;88.00;;;;;;5075566;28;20043;-90
2023/04/11 02:05:06;;;;;;;7.03;1.90;;;10.50;87.90;;;;;;5075573;28;20075;-89
2023/04/11 02:07:31;;;;;;;8.25;2.15;;;10.50;88.00;;;;;;5058843;28;20072;-89
2023/04/11 02:09:57;;;;;;;9.65;2.45;;;10.50;88.00;;;;;;5075874;28;20131;-90
2023/04/11 02:12:23;;;;;;;6.10;2.42;;;10.40;88.00;;;;;;5075507;28;20071;-91
2023/04/11 02:14:49;;;;;;;6.38;2.47;;;10.40;88.00;;;;;;5075333;28;20131;-91
2023/04/11 02:17:17;;;;;;;5.07;2.22;;;10.50;88.10;;;;;;5075338;28;20044;-89
2023/04/11 02:19:46;;;;;;;6.88;2.10;;;10.50;88.20;;;;;;5058807;28;20102;-89
2023/04/11 02:22:12;;;;;;;8.02;2.78;;;10.50;88.30;;;;;;5075025;28;20055;-90
2023/04/11 02:24:38;;;;;;;7.88;2.53;;;10.60;88.90;;;;;;5058751;28;20040;-89
2023/04/11 02:27:04;;;;;;;7.55;2.60;;;10.60;88.30;;;;;;5058560;28;20404;-91
2023/04/11 02:29:30;;;;;;;8.15;2.70;;;10.60;88.40;;;;;;5075073;28;20463;-89
2023/04/11 02:31:55;;;;;;;5.68;2.33;;;10.60;88.40;;;;;;5058474;28;20074;-89
2023/04/11 02:34:21;;;;;;;8.20;2.60;;;10.70;88.50;;;;;;5057855;28;20044;-90
2023/04/11 02:36:47;;;;;;;5.95;2.72;;;10.70;89.10;;;;;;5058089;28;20090;-88
2023/04/11 02:39:13;;;;;;;10.68;3.05;;;10.70;88.50;;;;;;5057638;28;20048;-89
2023/04/11 02:41:40;;;;;;;10.25;3.10;;;10.60;88.80;;;;;;5057694;28;20048;-88
2023/04/11 02:44:05;;;;;;;8.25;2.60;;;10.60;89.10;;;;;;5074925;28;20048;-89
2023/04/11 02:46:31;;;;;;;9.38;2.53;;;10.60;89.30;;;;;;5059155;28;20040;-90
2023/04/11 02:48:57;;;;;;;9.30;2.78;;;10.50;89.60;;;;;;5058845;28;20051;-90
2023/04/11 02:51:22;;;;;;;9.57;2.28;;;10.50;90.00;;;;;;5074908;28;20400;-89
2023/04/11 02:53:48;;;;;;;6.20;2.47;;;10.40;90.00;;;;;;5058156;28;20052;-91
2023/04/11 02:56:17;;;;;;;9.07;2.50;;;10.50;90.20;;;;;;5058320;28;20485;-90
2023/04/11 02:58:44;;;;;;;6.65;2.15;;;10.40;90.20;;;;;;5058248;28;20036;-90
2023/04/11 03:01:10;;;;;;;5.90;2.10;;;10.40;90.30;;;;;;5074772;28;20463;-90
2023/04/11 03:03:37;;;;;;;6.20;2.00;;;10.50;90.40;;;;;;5075163;28;20048;-92
2023/04/11 03:06:05;;;;;;;4.38;1.90;;;10.50;90.40;;;;;;5075222;28;20051;-93
2023/04/11 03:08:31;;;;;;;2.97;1.38;;;10.40;90.40;;;;;;5057722;28;20471;-89
2023/04/11 03:10:57;;;;;;;4.13;1.38;;;10.40;90.40;;;;;;5074307;28;20150;-88
2023/04/11 03:13:24;;;;;;;5.95;1.50;;;10.50;90.40;;;;;;5073561;28;20132;-87
2023/04/11 03:15:49;;;;;;;3.80;1.33;;;10.40;90.50;;;;;;5057127;28;20123;-87
2023/04/11 03:18:15;;;;;;;2.75;1.60;;;10.40;90.50;;;;;;5057354;28;20648;-89
2023/04/11 03:20:40;;;;;;;5.90;1.42;;;10.50;90.50;;;;;;5056554;28;20131;-88
2023/04/11 03:23:06;;;;;;;4.20;1.42;;;10.50;90.50;;;;;;5056306;28;20477;-88
2023/04/11 03:25:32;;;;;;;1.98;1.35;;;10.60;90.50;;;;;;5056530;28;20080;-88
2023/04/11 03:27:57;;;;;;;3.38;1.50;;;10.60;90.50;;;;;;5072481;28;20047;-87
2023/04/11 03:30:23;;;;;;;6.68;1.77;;;10.60;90.50;;;;;;5056215;28;20542;-88
2023/04/11 03:32:48;;;;;;;3.85;1.70;;;10.60;90.50;;;;;;5056699;28;20075;-88
2023/04/11 03:35:14;;;;;;;3.42;1.55;;;10.60;90.40;;;;;;5073318;28;20054;-88
2023/04/11 03:37:39;;;;;;;6.95;1.83;;;10.70;90.40;;;;;;5073284;28;20110;-89
2023/04/11 03:40:08;;;;;;;3.58;1.98;;;10.70;90.40;;;;;;5073324;28;20093;-89
2023/04/11 03:42:35;;;;;;;3.95;1.80;;;10.70;90.30;;;;;;5056719;28;20044;-90
2023/04/11 03:45:00;;;;;;;5.93;1.90;;;10.70;90.30;;;;;;5073200;28;20040;-88
2023/04/11 03:47:26;;;;;;;5.20;1.90;;;10.80;90.30;;;;;;5056944;28;20039;-88
2023/04/11 03:49:52;;;;;;;4.50;1.92;;;10.80;90.20;;;;;;5056778;28;20170;-89
2023/04/11 03:52:17;;;;;;;6.47;2.10;;;10.80;90.20;;;;;;5056764;28;20036;-88
2023/04/11 03:54:43;;;;;;;7.82;2.50;;;10.80;90.20;;;;;;5056746;28;20048;-89
2023/04/11 03:57:09;;;;;;;7.93;2.50;;;10.80;90.30;;;;;;5056646;28;20493;-88
2023/04/11 03:59:35;;;;;;;7.63;2.83;;;10.90;90.30;;;;;;5056712;28;20512;-88
2023/04/11 04:02:00;;;;;;;7.78;2.70;;;10.80;90.20;;;;;;5073144;28;20087;-89
2023/04/11 04:04:26;;;;;;;9.23;3.00;;;10.90;90.20;;;;;;5056511;28;20044;-90
2023/04/11 04:06:55;;;;;;;10.80;2.80;;;10.90;90.10;;;;;;5073522;28;20594;-89
2023/04/11 04:09:22;;;;;;;12.25;3.78;;;10.90;90.20;;;;;;5057653;28;20082;-90
2023/04/11 04:11:48;;;;;;;10.80;3.60;;;10.90;90.20;;;;;;5056953;28;20452;-91
2023/04/11 04:14:15;;;;;;;12.77;3.75;;;10.90;90.20;;;;;;5056633;28;20078;-90
2023/04/11 04:16:40;;;;;;;13.77;3.88;;;10.90;90.30;;;;;;5056358;28;20130;-88
2023/04/11 04:19:06;;;;;;;7.50;3.58;;;10.90;90.30;;;;;;5073839;28;20466;-91
2023/04/11 04:21:32;;;;;;;12.85;3.63;;;10.90;90.30;;;;;;5073602;28;20051;-90
2023/04/11 04:24:02;;;;;;;12.90;3.83;;;11.00;90.40;;;;;;5057364;28;20127;-93
2023/04/11 04:26:28;;;;;;;16.92;3.80;;;11.00;90.50;;;;;;5057398;28;20135;-87
2023/04/11 04:28:56;;;;;;;16.95;3.83;;;11.00;90.50;;;;;;5077358;28;20047;-90
2023/04/11 04:31:24;;;;;;;12.45;3.45;;;11.00;90.60;;;;;;5058188;28;20130;-92
2023/04/11 04:33:50;;;;;;;12.00;2.90;;;11.00;90.70;;;;;;5058935;28;20477;-92
2023/04/11 04:36:16;;;;;;;9.77;3.28;;;11.00;90.70;;;;;;5074837;28;20127;-92
2023/04/11 04:38:43;;;;;;;11.85;3.40;;;11.10;90.80;;;;;;5060747;28;20130;-91
2023/04/11 04:41:14;;;;;;;14.98;3.28;;;11.10;90.80;;;;;;5062386;28;20047;-91
2023/04/11 04:43:43;;;;;;;11.93;3.20;;;11.10;90.80;;;;;;5061802;28;20480;-91
2023/04/11 04:46:09;;;;;;;12.63;3.28;;;11.20;90.80;;;;;;5078611;28;20044;-91
2023/04/11 04:48:35;;;;;;;10.02;3.42;;;11.20;90.70;;;;;;5077800;28;20048;-89
2023/04/11 04:51:02;;;;;;;11.80;3.17;;;11.30;90.70;;;;;;5061644;28;20040;-92
2023/04/11 04:53:27;;;;;;;12.13;3.20;;;11.30;90.70;;;;;;5061999;28;20079;-92
2023/04/11 04:55:53;;;;;;;9.48;3.03;;;11.40;90.60;;;;;;5061915;28;20075;-91
2023/04/11 04:58:19;;;;;;;11.02;3.10;;;11.40;90.50;;;;;;5078442;28;20043;-91
2023/04/11 05:00:45;;;;;;;13.40;3.22;;;11.40;90.50;;;;;;5061230;28;20051;-92
2023/04/11 05:03:10;;;;;;;9.63;3.05;;;11.40;90.40;;;;;;5062068;28;20492;-91
2023/04/11 05:05:36;;;;;;;9.07;3.05;;;11.40;90.40;;;;;;5061766;28;20047;-91
2023/04/11 05:08:01;;;;;;;6.35;2.67;;;11.40;90.40;;;;;;5062080;28;20040;-93
2023/04/11 05:10:27;;;;;;;12.40;3.20;;;11.40;90.30;;;;;;5061719;28;20523;-92
2023/04/11 05:12:54;;;;;;;9.15;2.92;;;11.40;90.20;;;;;;5077962;28;20086;-93
2023/04/11 05:15:21;;;;;;;11.27;3.10;;;11.40;90.20;;;;;;5078338;28;20101;-93
2023/04/11 05:17:47;;;;;;;7.22;2.50;;;11.40;90.10;;;;;;5061605;28;20073;-92
2023/04/11 05:20:14;;;;;;;9.80;3.30;;;11.40;90.00;;;;;;5062281;28;20134;-93
2023/04/11 05:22:41;;;;;;;8.20;2.70;;;11.50;90.00;;;;;;5061541;28;20048;-94
2023/04/11 05:25:08;;;;;;;11.48;2.58;;;11.40;89.80;;;;;;5077822;28;20048;-91
2023/04/11 05:27:33;;;;;;;6.50;2.50;;;11.50;89.80;;;;;;5061440;28;20044;-92
2023/04/11 05:30:01;;;;;;;9.25;2.83;;;11.50;89.70;;;;;;5062751;28;20397;-94
2023/04/11 05:32:27;;;;;;;9.57;2.65;;;11.50;89.70;;;;;;5061790;28;20048;-93
2023/04/11 05:34:54;;;;;;;7.60;2.92;;;11.50;89.60;;;;;;5062316;28;20121;-92
2023/04/11 05:37:19;;;;;;;4.50;2.20;;;11.50;89.50;;;;;;5062299;28;20048;-92
2023/04/11 05:39:45;;;;;;;7.72;2.53;;;11.50;89.30;;;;;;5078636;28;20042;-93
2023/04/11 05:42:11;;;;;;;9.98;3.40;;;11.60;89.20;;;;;;5061126;28;20077;-92
2023/04/11 05:44:39;;;;;;;9.38;2.95;;;11.50;89.60;;;;;;5078471;28;20044;-89
2023/04/11 05:47:05;;;;;;;10.93;3.00;;;11.60;89.00;;;;;;5077776;28;20070;-92
2023/04/11 05:49:30;;;;;;;8.05;3.08;;;11.60;89.40;;;;;;5059845;28;20036;-92
2023/04/11 05:51:56;;;;;;;10.52;2.65;;;11.60;88.60;;;;;;5078517;28;20104;-91
2023/04/11 05:54:32;;;;;;;7.28;2.88;;;11.60;88.60;;;;;;5061689;28;20044;-91
2023/04/11 05:56:58;;;;;;;8.82;2.63;;;11.60;88.60;;;;;;5060532;28;20044;-89
2023/04/11 05:59:23;;;;;;;6.57;2.80;;;11.60;88.40;;;;;;5060402;28;20044;-89
2023/04/11 06:01:49;;;;;;;9.90;3.35;;;11.60;88.50;;;;;;5060702;28;20044;-90
2023/04/11 06:04:15;;;;;;;9.60;2.60;;;11.50;88.70;;;;;;5077188;28;20523;-91
2023/04/11 06:06:42;;;;;;;7.95;2.50;;;11.50;88.80;;;;;;5060486;28;20080;-90
2023/04/11 06:09:09;;;;;;;8.55;3.03;;;11.60;88.90;;;;;;5060905;28;20044;-92
2023/04/11 06:11:35;;;;;;;7.95;2.40;;;11.50;88.60;;;;;;5060500;28;20032;-90
2023/04/11 06:14:01;;;;;;;9.32;2.30;;;11.60;88.60;;;;;;5059972;28;20157;-91
2023/04/11 06:16:26;;;;;;;6.93;2.50;;;11.60;88.50;;;;;;5077316;28;20044;-93
2023/04/11 06:18:52;;;;;;;8.52;2.60;;;11.60;88.40;;;;;;5060599;28;20044;-91
2023/04/11 06:21:18;;;;;;;7.40;2.63;;;11.60;88.40;;;;;;5059640;28;20044;-91
2023/04/11 06:23:48;;;;;;;6.60;2.33;;;11.60;88.20;;;;;;5077612;28;20044;-93
2023/04/11 06:26:13;;;;;;;7.88;2.60;;;11.60;88.20;;;;;;5076998;28;20044;-92
2023/04/11 06:28:39;;;;;;;9.13;2.45;;;11.70;88.10;;;;;;5077081;28;20382;-91
2023/04/11 06:31:07;;;;;;;9.23;2.33;;;11.70;88.00;;;;;;5059408;28;20141;-91
2023/04/11 06:33:32;;;;;;;10.15;2.60;;;11.70;88.00;;;;;;5077112;28;20039;-92
2023/04/11 06:35:58;;;;;;;9.18;2.58;;;11.70;88.20;;;;;;5060081;28;20044;-90
2023/04/11 06:38:24;;;;;;;10.23;3.28;;;11.80;88.20;;;;;;5075371;28;20109;-90
2023/04/11 06:40:51;;;;;;;10.18;3.00;;;11.70;88.20;;;;;;5076309;28;21136;-92
2023/04/11 06:43:16;;;;;;;6.40;2.72;;;11.60;88.50;;;;;;5059857;28;20382;-91
2023/04/11 06:45:42;;;;;;;7.20;2.67;;;11.50;88.70;;;;;;5058722;28;20036;-90
2023/04/11 06:48:07;;;;;;;9.38;2.67;;;11.60;88.90;;;;;;5075655;28;20052;-92
2023/04/11 06:50:37;;;;;;;10.57;3.22;;;11.60;89.00;;;;;;5075434;28;20032;-92
2023/04/11 06:53:03;;;;;;;8.98;2.72;;;11.60;89.00;;;;;;5058876;28;20036;-90
2023/04/11 06:55:28;;;;;;;12.80;3.70;;;11.70;88.70;;;;;;5057779;28;20067;-80
2023/04/11 06:57:54;;;;;;;8.52;2.55;;;11.70;88.40;;;;;;5091737;28;20047;-80
2023/04/11 07:00:20;;;;;;;7.28;2.70;;;11.80;88.40;;;;;;5091350;28;20048;-80
2023/04/11 07:02:45;;;;;;;11.52;3.10;;;11.90;88.40;;;;;;5091627;28;20047;-80
2023/04/11 07:05:11;;;;;;;8.00;2.80;;;11.80;88.10;;;;;;5091611;28;20062;-79
2023/04/11 07:07:37;;;;;;;8.70;2.63;;;11.90;87.90;;;;;;5091265;28;20051;-80
2023/04/11 07:10:04;;;;;;;17.33;3.25;;;11.90;87.60;;;;;;5091403;28;20137;-79
2023/04/11 07:12:29;;;;;;;9.98;2.92;;;11.90;87.10;;;;;;5091402;28;20066;-80
2023/04/11 07:14:55;;;;;;;8.23;2.88;;;11.80;87.00;;;;;;5091425;28;20045;-80
2023/04/11 07:17:21;;;;;;;10.13;3.08;;;11.70;87.30;;;;;;5090990;28;20032;-80
2023/04/11 07:19:46;;;;;;;11.20;2.90;;;11.60;87.60;;;;;;5091134;28;20446;-80
2023/04/11 07:22:12;;;;;;;13.10;3.22;;;11.60;87.80;;;;;;5091107;28;20053;-80
2023/04/11 07:24:37;;;;;;;8.43;2.13;;;11.80;87.70;;;;;;5091125;28;20044;-80
2023/04/11 07:27:03;;;;;;;11.18;2.60;;;11.90;87.10;;;;;;5090727;28;20040;-79
2023/04/11 07:29:29;;;;;;;10.10;2.55;;;11.90;86.60;;;;;;5102402;28;20043;-81
2023/04/11 07:31:55;;;;;;;7.97;2.28;;;12.00;86.40;;;;;;5111497;28;20055;-79
2023/04/11 07:34:20;;;;;;;8.90;2.53;;;12.10;86.10;;;;;;5111514;28;20040;-80
2023/04/11 07:36:46;;;;;;;9.82;2.40;;;12.30;85.70;;;;;;5109111;28;20083;-80
2023/04/11 07:39:13;;;;;;;9.82;2.30;;;12.40;85.40;;;;;;5090268;28;20054;-80
2023/04/11 07:41:39;;;;;;;11.10;2.70;;;12.50;84.90;;;;;;5090370;28;20052;-80
2023/04/11 07:44:06;;;;;;;11.60;3.05;;;12.60;84.50;;;;;;5090370;28;20043;-79
2023/04/11 07:46:32;;;;;;;11.85;2.65;;;12.70;84.40;;;;;;5090044;28;20040;-79
2023/04/11 07:48:58;;;;;;;8.10;2.45;;;12.80;84.10;;;;;;5090270;28;20416;-79
2023/04/11 07:51:25;;;;;;;10.10;3.10;;;12.90;83.40;;;;;;5089340;28;20039;-79
2023/04/11 07:53:50;;;;;;;7.53;2.15;;;12.80;83.90;;;;;;5072078;28;20093;-80
2023/04/11 07:56:16;;;;;;;8.73;2.13;;;12.70;83.10;;;;;;5072125;28;20044;-80
2023/04/11 07:58:42;;;;;;;10.05;2.65;;;12.60;83.10;;;;;;5090215;28;20530;-80
2023/04/11 08:01:19;;;;;;;10.77;2.50;;;12.50;82.70;;;;;;5090526;28;20044;-80
2023/04/11 08:03:44;;;;;;;9.80;2.15;;;12.30;82.60;;;;;;5090653;28;20437;-80
2023/04/11 08:06:10;;;;;;;8.45;2.20;;;12.40;82.50;;;;;;5072304;28;20087;-80
2023/04/11 08:08:35;;;;;;;10.00;2.88;;;12.30;82.30;;;;;;5072222;28;20048;-81
2023/04/11 08:11:01;;;;;;;10.02;2.10;;;12.30;82.40;;;;;;5090305;28;20079;-80
2023/04/11 08:13:27;;;;;;;11.50;2.60;;;12.30;82.40;;;;;;5071580;28;20406;-80
2023/04/11 08:15:52;;;;;;;11.15;2.55;;;12.30;82.50;;;;;;5072414;28;20046;-79
2023/04/11 08:18:20;;;;;;;6.85;1.98;;;12.20;82.80;;;;;;5090334;28;20044;-80
2023/04/11 08:20:47;;;;;;;4.13;1.50;;;11.90;82.70;;;;;;5090116;28;20048;-80
2023/04/11 08:23:14;;;;;;;10.40;2.22;;;11.50;83.60;;;;;;5090154;28;20032;-80
2023/04/11 08:25:40;;;;;;;7.65;2.53;;;11.20;84.30;;;;;;5055583;28;20052;-80
2023/04/11 08:28:08;;;;;;;8.95;2.50;;;11.00;84.70;;;;;;5090186;28;20048;-80
2023/04/11 08:30:34;;;;;;;9.57;2.17;;;10.90;85.00;;;;;;5071983;28;20080;-79
2023/04/11 08:33:00;;;;;;;3.63;1.67;;;10.90;85.30;;;;;;5072109;28;20051;-80
2023/04/11 08:35:26;;;;;;;9.57;2.17;;;10.80;85.20;;;;;;5071658;28;20051;-80
2023/04/11 08:37:52;;;;;;;6.45;2.22;;;10.70;85.50;;;;;;5082483;28;20079;-80
2023/04/11 08:40:18;;;;;;;10.30;2.40;;;10.70;86.00;;;;;;5110135;28;20082;-80
2023/04/11 08:42:44;;;;;;;12.20;3.20;;;10.90;86.30;;;;;;5092010;28;20051;-80
2023/04/11 08:45:10;;;;;;;12.70;2.90;;;11.10;86.20;;;;;;5109299;28;20138;-80
2023/04/11 08:47:36;;;;;;;7.63;2.22;;;11.10;85.90;;;;;;5109111;28;20126;-80
2023/04/11 08:50:03;;;;;;;11.63;2.25;;;11.10;85.60;;;;;;5091090;28;20048;-80
2023/04/11 08:52:29;;;;;;;9.05;2.72;;;11.00;86.00;;;;;;5109334;28;20393;-80
2023/04/11 08:54:55;;;;;;;10.23;2.20;;;11.00;86.30;;;;;;5091060;28;20035;-80
2023/04/11 08:57:26;;;;;;;18.88;8.52;;;11.10;86.40;;;;;;5091030;28;20492;-80
2023/04/11 08:59:54;;;;;;;8.02;2.20;;;11.20;86.50;;;;;;5090968;28;20839;-80
2023/04/11 09:02:20;;;;;;;10.77;2.45;;;11.60;86.50;;;;;;5091025;28;20063;-79
2023/04/11 09:04:46;;;;;;;9.07;2.45;;;11.90;85.80;;;;;;5109283;28;20047;-80
2023/04/11 09:07:14;;;;;;;8.52;1.90;;;12.10;85.50;;;;;;5108936;28;20064;-79
2023/04/11 09:09:39;;;;;;;6.82;1.58;;;12.20;85.00;;;;;;5091447;28;20050;-80
2023/04/11 09:12:05;;;;;;;6.57;2.15;;;12.10;84.00;;;;;;5091016;28;20051;-81
2023/04/11 09:14:31;;;;;;;11.10;2.58;;;11.90;82.30;;;;;;5091051;28;20100;-81
2023/04/11 09:16:58;;;;;;;8.10;1.85;;;11.30;83.30;;;;;;5091409;28;20103;-81
2023/04/11 09:19:25;;;;;;;6.00;2.13;;;10.90;85.50;;;;;;5090596;28;20055;-81
2023/04/11 09:21:55;;;;;;;9.77;2.53;;;10.70;86.60;;;;;;5090766;28;20051;-81
2023/04/11 09:24:21;;;;;;;6.43;2.40;;;10.60;87.50;;;;;;5092723;28;20523;-81
2023/04/11 09:26:47;;;;;;;4.97;1.70;;;10.60;87.90;;;;;;5094591;28;20082;-80
2023/04/11 09:29:36;;;;;;;4.30;1.75;;;10.60;87.40;;;;;;5094652;28;20461;-81
2023/04/11 09:32:02;;;;;;;7.38;1.73;;;10.50;87.60;;;;;;5095143;28;20051;-80
2023/04/11 09:34:28;;;;;;;8.23;2.08;;;10.80;87.00;;;;;;5094121;28;20093;-81
2023/04/11 09:36:55;;;;;;;7.03;2.20;;;10.80;87.00;;;;;;5092455;28;20052;-81
2023/04/11 09:39:21;;;;;;;6.88;1.75;;;10.90;86.80;;;;;;5074145;28;20131;-81
2023/04/11 09:41:46;;;;;;;8.30;2.00;;;11.00;86.70;;;;;;5073590;28;20517;-81
2023/04/11 09:44:12;;;;;;;6.72;1.80;;;11.10;86.50;;;;;;5074169;28;20166;-81
2023/04/11 09:46:57;;;;;;;8.73;2.08;;;11.40;86.40;;;;;;5075006;28;20784;-92
2023/04/11 09:49:23;;;;;;;6.18;1.90;;;11.60;86.30;;;;;;5058585;28;20047;-88
2023/04/11 09:51:52;;;;;;;7.82;1.70;;;11.90;85.20;;;;;;5058934;28;20032;-89
2023/04/11 09:54:21;;;;;;;7.00;1.90;;;11.80;84.60;;;;;;5057356;28;20032;-89
2023/04/11 09:56:47;;;;;;;6.18;2.03;;;11.50;83.80;;;;;;5074405;28;20389;-87
2023/04/11 09:59:18;;;;;;;8.40;1.65;;;11.00;84.50;;;;;;5074321;28;20066;-89
2023/04/11 10:01:44;;;;;;;4.47;1.40;;;10.70;85.40;;;;;;5074739;28;20056;-87
2023/04/11 10:04:10;;;;;;;4.20;1.48;;;10.50;86.20;;;;;;5058179;28;20036;-88
2023/04/11 10:06:44;;;;;;;7.65;1.40;;;10.50;86.60;;;;;;5057554;28;20093;-88
2023/04/11 10:09:14;;;;;;;2.08;1.40;;;10.40;86.50;;;;;;5074814;28;20093;-88
2023/04/11 10:11:43;;;;;;;6.63;1.83;;;10.40;86.60;;;;;;5058065;28;20040;-88
2023/04/11 10:14:35;;;;;;;4.50;1.20;;;10.40;86.60;;;;;;5058084;28;20374;-89
2023/04/11 10:17:18;;;;;;;7.50;1.73;;;10.40;86.50;;;;;;5058494;28;20054;-89
2023/04/11 10:19:44;;;;;;;6.43;1.38;;;10.50;86.30;;;;;;5074331;28;20048;-89
2023/04/11 10:22:30;;;;;;;5.82;1.98;;;10.70;86.00;;;;;;5081284;28;20044;-90
2023/04/11 10:25:15;;;;;;;6.72;1.90;;;10.80;86.10;;;;;;5061373;28;20059;-87
2023/04/11 10:27:48;;;;;;;6.50;1.80;;;10.90;86.10;;;;;;5075082;28;20576;-89
2023/04/11 10:30:15;;;;;;;8.50;1.90;;;11.10;85.30;;;;;;5058084;28;20462;-89
2023/04/11 10:33:00;;;;;;;8.55;2.05;;;11.20;85.10;;;;;;5074034;28;20077;-89
2023/04/11 10:35:28;;;;;;;8.88;2.08;;;11.20;85.00;;;;;;5073625;28;20048;-88
2023/04/11 10:37:55;;;;;;;7.28;1.67;;;11.50;85.00;;;;;;5068100;28;20060;-90
2023/04/11 10:40:21;;;;;;;6.15;1.77;;;11.70;84.70;;;;;;5094236;28;20044;-88
2023/04/11 10:42:48;;;;;;;4.65;2.10;;;12.00;84.30;;;;;;5093849;28;20051;-89
2023/04/11 10:45:29;;;;;;;5.63;1.77;;;12.30;84.00;;;;;;5093750;28;20055;-89
2023/04/11 10:47:55;;;;;;;5.43;1.75;;;12.50;83.70;;;;;;5094412;28;20048;-88
2023/04/11 10:50:30;;;;;;;4.85;1.83;;;13.00;83.10;;;;;;5094223;28;20050;-88
2023/04/11 10:52:57;;;;;;;10.10;1.73;;;13.20;82.10;;;;;;5077216;28;20101;-88
2023/04/11 10:55:28;;;;;;;4.45;1.42;;;13.30;81.50;;;;;;5076330;28;20035;-90
2023/04/11 10:58:07;;;;;;;6.10;1.80;;;13.50;80.60;;;;;;5093423;28;20056;-89
2023/04/11 11:00:48;;;;;;;7.55;1.85;;;13.70;80.40;;;;;;5077029;28;20043;-89
2023/04/11 11:03:14;;;;;;;6.10;2.03;;;14.10;80.30;;;;;;5093591;28;20106;-90
2023/04/11 11:05:40;;;;;;;9.77;2.35;;;14.40;79.40;;;;;;5092615;28;20077;-89
2023/04/11 11:08:07;;;;;;;7.45;1.67;;;14.50;78.80;;;;;;5093074;28;20396;-87
2023/04/11 11:10:47;;;;;;;10.00;2.30;;;14.40;77.20;;;;;;5092953;28;20047;-89
2023/04/11 11:13:15;;;;;;;6.72;1.85;;;14.10;75.90;;;;;;5075091;28;20050;-88
2023/04/11 11:15:47;;;;;;;6.82;1.50;;;13.60;76.80;;;;;;5093332;28;20043;-90
2023/04/11 11:18:16;;;;;;;10.07;1.98;;;13.10;77.30;;;;;;5076273;28;20039;-89
2023/04/11 11:20:42;;;;;;;6.15;1.85;;;12.90;78.20;;;;;;5092709;28;20075;-89
2023/04/11 11:23:10;;;;;;;6.90;1.48;;;12.80;78.80;;;;;;5076224;28;20571;-88
2023/04/11 11:25:36;;;;;;;8.68;1.88;;;12.90;79.10;;;;;;5076037;28;20047;-88
2023/04/11 11:28:04;;;;;;;6.85;1.40;;;12.80;78.40;;;;;;5077345;28;20069;-90
2023/04/11 11:30:30;;;;;;;8.05;1.63;;;12.10;78.00;;;;;;5077888;28;20043;-90
2023/04/11 11:32:56;;;;;;;6.07;1.50;;;11.50;79.70;;;;;;5080067;28;20048;-91
2023/04/11 11:35:23;;;;;;;7.22;1.45;;;11.40;81.00;;;;;;5047525;28;20093;-89
2023/04/11 11:37:52;;;;;;;7.00;2.35;;;11.30;81.80;;;;;;5071593;28;20082;-89
2023/04/11 11:40:21;;;;;;;6.72;2.10;;;11.60;83.00;;;;;;5067884;28;20090;-89
2023/04/11 11:42:51;;;;;;;8.07;1.70;;;12.00;83.30;;;;;;5093401;28;20087;-88
2023/04/11 11:45:21;;;;;;;3.15;1.67;;;12.10;82.20;;;;;;5077063;28;20069;-89
2023/04/11 11:47:48;;;;;;;4.05;1.42;;;12.00;81.50;;;;;;5093382;28;20838;-88
2023/04/11 11:50:28;;;;;;;5.50;1.25;;;11.80;81.70;;;;;;5093289;28;20048;-89
2023/04/11 11:52:55;;;;;;;8.18;1.50;;;11.60;82.20;;;;;;5093199;28;20083;-88
2023/04/11 11:55:21;;;;;;;8.40;1.75;;;11.80;82.70;;;;;;5076616;28;20050;-89
2023/04/11 11:57:48;;;;;;;5.13;1.45;;;12.10;82.80;;;;;;5094170;28;20043;-90
2023/04/11 12:00:22;;;;;;;5.97;2.42;;;12.70;82.90;;;;;;5093970;28;20058;-89
2023/04/11 12:02:50;;;;;;;5.63;1.70;;;13.00;81.80;;;;;;5092878;28;20048;-89
2023/04/11 12:05:16;;;;;;;8.50;1.60;;;12.90;81.70;;;;;;5093622;28;20055;-91
2023/04/11 12:07:42;;;;;;;4.55;1.52;;;12.50;82.10;;;;;;5093076;28;20051;-90
2023/04/11 12:10:13;;;;;;;7.72;1.67;;;12.10;82.80;;;;;;5092920;28;20097;-89
2023/04/11 12:12:43;;;;;;;5.82;1.88;;;11.90;83.20;;;;;;5076666;28;20295;-88
2023/04/11 12:15:17;;;;;;;11.00;2.13;;;11.80;83.20;;;;;;5075714;28;20043;-89
2023/04/11 12:17:53;;;;;;;7.80;2.20;;;11.80;83.30;;;;;;5076951;28;20044;-90
2023/04/11 12:20:26;;;;;;;7.72;2.15;;;12.00;84.00;;;;;;5092629;28;20058;-89
2023/04/11 12:22:52;;;;;;;8.40;1.80;;;12.40;83.10;;;;;;5075949;28;20531;-90
2023/04/11 12:25:17;;;;;;;12.30;2.72;;;13.00;82.50;;;;;;5075915;28;20628;-87
2023/04/11 12:27:44;;;;;;;8.43;1.77;;;13.30;81.60;;;;;;5092273;28;20104;-89
2023/04/11 12:30:13;;;;;;;7.35;1.92;;;13.50;79.70;;;;;;5093034;28;20374;-87
2023/04/11 12:32:40;;;;;;;8.00;1.85;;;13.60;79.50;;;;;;5076081;28;20068;-88
2023/04/11 12:35:06;;;;;;;9.13;2.42;;;13.90;79.90;;;;;;5076078;28;20040;-91
2023/04/11 12:37:32;;;;;;;9.63;2.38;;;14.20;79.30;;;;;;5092819;28;20438;-90
2023/04/11 12:39:58;;;;;;;11.00;2.80;;;14.30;78.00;;;;;;5075938;28;20055;-88
2023/04/11 12:42:24;;;;;;;7.93;2.50;;;14.20;77.40;;;;;;5075572;28;20043;-89
2023/04/11 12:44:50;;;;;;;6.05;2.22;;;14.00;77.10;;;;;;5092376;28;20043;-89